sensor_id;sensor_type;location;lat;lon;timestamp;P1;durP1;ratioP1;P2;durP2;ratioP2
51248;SDS011;39642;47.556;18.728;2023-07-30T00:01:17;7.87;;;2.37;;
51248;SDS011;39642;47.556;18.728;2023-07-30T00:03:43;9.07;;;2.22;;
51248;SDS011;39642;47.556;18.728;2023-07-30T00:06:08;8.73;;;2.12;;
51248;SDS011;39642;47.556;18.728;2023-07-30T00:08:34;8.38;;;2.22;;
51248;SDS011;39642;47.556;18.728;2023-07-30T00:11:00;8.90;;;2.25;;
51248;SDS011;39642;47.556;18.728;2023-07-30T00:13:26;7.57;;;2.25;;
51248;SDS011;39642;47.556;18.728;2023-07-30T00:15:52;7.20;;;2.30;;
51248;SDS011;39642;47.556;18.728;2023-07-30T00:18:18;9.25;;;2.42;;
51248;SDS011;39642;47.556;18.728;2023-07-30T00:20:44;8.80;;;2.40;;
51248;SDS011;39642;47.556;18.728;2023-07-30T00:23:09;8.27;;;2.47;;
51248;SDS011;39642;47.556;18.728;2023-07-30T00:25:35;7.20;;;2.22;;
51248;SDS011;39642;47.556;18.728;2023-07-30T00:28:01;10.23;;;2.50;;
51248;SDS011;39642;47.556;18.728;2023-07-30T00:30:27;8.13;;;2.40;;
51248;SDS011;39642;47.556;18.728;2023-07-30T00:32:53;7.40;;;2.40;;
51248;SDS011;39642;47.556;18.728;2023-07-30T00:35:19;7.32;;;2.10;;
51248;SDS011;39642;47.556;18.728;2023-07-30T00:37:45;7.97;;;2.40;;
51248;SDS011;39642;47.556;18.728;2023-07-30T00:40:11;7.50;;;2.40;;
51248;SDS011;39642;47.556;18.728;2023-07-30T00:42:37;8.50;;;2.55;;
51248;SDS011;39642;47.556;18.728;2023-07-30T00:45:03;7.80;;;2.17;;
51248;SDS011;39642;47.556;18.728;2023-07-30T00:47:30;7.72;;;2.30;;
51248;SDS011;39642;47.556;18.728;2023-07-30T00:49:56;7.62;;;2.30;;
51248;SDS011;39642;47.556;18.728;2023-07-30T00:52:22;7.07;;;2.30;;
51248;SDS011;39642;47.556;18.728;2023-07-30T00:54:49;8.60;;;2.72;;
51248;SDS011;39642;47.556;18.728;2023-07-30T00:57:17;8.38;;;2.58;;
51248;SDS011;39642;47.556;18.728;2023-07-30T00:59:45;7.62;;;2.33;;
51248;SDS011;39642;47.556;18.728;2023-07-30T01:02:12;8.27;;;2.50;;
51248;SDS011;39642;47.556;18.728;2023-07-30T01:04:38;10.60;;;2.50;;
51248;SDS011;39642;47.556;18.728;2023-07-30T01:07:05;8.45;;;2.30;;
51248;SDS011;39642;47.556;18.728;2023-07-30T01:09:31;8.23;;;2.20;;
51248;SDS011;39642;47.556;18.728;2023-07-30T01:11:58;7.18;;;2.20;;
51248;SDS011;39642;47.556;18.728;2023-07-30T01:14:25;7.10;;;2.30;;
51248;SDS011;39642;47.556;18.728;2023-07-30T01:16:52;7.60;;;2.33;;
51248;SDS011;39642;47.556;18.728;2023-07-30T01:19:18;8.45;;;2.28;;
51248;SDS011;39642;47.556;18.728;2023-07-30T01:21:44;7.78;;;2.40;;
51248;SDS011;39642;47.556;18.728;2023-07-30T01:24:10;7.70;;;2.28;;
51248;SDS011;39642;47.556;18.728;2023-07-30T01:26:55;8.00;;;2.42;;
51248;SDS011;39642;47.556;18.728;2023-07-30T01:30:29;6.82;;;2.20;;
51248;SDS011;39642;47.556;18.728;2023-07-30T01:32:31;7.07;;;2.25;;
51248;SDS011;39642;47.556;18.728;2023-07-30T01:34:58;7.43;;;2.30;;
51248;SDS011;39642;47.556;18.728;2023-07-30T01:37:27;7.40;;;2.10;;
51248;SDS011;39642;47.556;18.728;2023-07-30T01:39:55;7.93;;;2.25;;
51248;SDS011;39642;47.556;18.728;2023-07-30T01:42:21;8.10;;;2.47;;
51248;SDS011;39642;47.556;18.728;2023-07-30T01:44:54;8.30;;;2.30;;
51248;SDS011;39642;47.556;18.728;2023-07-30T01:47:20;6.55;;;2.05;;
51248;SDS011;39642;47.556;18.728;2023-07-30T01:49:45;8.25;;;2.50;;
51248;SDS011;39642;47.556;18.728;2023-07-30T01:52:11;7.97;;;2.40;;
51248;SDS011;39642;47.556;18.728;2023-07-30T01:54:37;7.82;;;2.10;;
51248;SDS011;39642;47.556;18.728;2023-07-30T01:57:03;7.05;;;2.28;;
51248;SDS011;39642;47.556;18.728;2023-07-30T01:59:29;7.32;;;2.40;;
51248;SDS011;39642;47.556;18.728;2023-07-30T02:01:55;8.05;;;2.40;;
51248;SDS011;39642;47.556;18.728;2023-07-30T02:04:21;7.30;;;2.20;;
51248;SDS011;39642;47.556;18.728;2023-07-30T02:06:46;7.10;;;2.25;;
51248;SDS011;39642;47.556;18.728;2023-07-30T02:09:12;6.40;;;2.08;;
51248;SDS011;39642;47.556;18.728;2023-07-30T02:11:38;7.72;;;2.15;;
51248;SDS011;39642;47.556;18.728;2023-07-30T02:14:04;7.70;;;2.30;;
51248;SDS011;39642;47.556;18.728;2023-07-30T02:16:30;7.68;;;2.10;;
51248;SDS011;39642;47.556;18.728;2023-07-30T02:18:56;7.57;;;2.25;;
51248;SDS011;39642;47.556;18.728;2023-07-30T02:21:22;8.10;;;2.40;;
51248;SDS011;39642;47.556;18.728;2023-07-30T02:23:47;6.60;;;2.00;;
51248;SDS011;39642;47.556;18.728;2023-07-30T02:26:13;6.60;;;2.10;;
51248;SDS011;39642;47.556;18.728;2023-07-30T02:28:39;7.53;;;2.30;;
51248;SDS011;39642;47.556;18.728;2023-07-30T02:31:05;8.15;;;2.30;;
51248;SDS011;39642;47.556;18.728;2023-07-30T02:33:31;7.12;;;2.25;;
51248;SDS011;39642;47.556;18.728;2023-07-30T02:35:57;7.55;;;2.20;;
51248;SDS011;39642;47.556;18.728;2023-07-30T02:38:22;7.22;;;2.15;;
51248;SDS011;39642;47.556;18.728;2023-07-30T02:40:48;7.30;;;2.12;;
51248;SDS011;39642;47.556;18.728;2023-07-30T02:43:14;8.25;;;2.30;;
51248;SDS011;39642;47.556;18.728;2023-07-30T02:45:40;9.40;;;2.30;;
51248;SDS011;39642;47.556;18.728;2023-07-30T02:48:06;7.57;;;2.10;;
51248;SDS011;39642;47.556;18.728;2023-07-30T02:50:32;6.90;;;2.00;;
51248;SDS011;39642;47.556;18.728;2023-07-30T02:52:58;7.97;;;2.30;;
51248;SDS011;39642;47.556;18.728;2023-07-30T02:55:23;9.25;;;2.20;;
51248;SDS011;39642;47.556;18.728;2023-07-30T02:57:49;9.77;;;2.30;;
51248;SDS011;39642;47.556;18.728;2023-07-30T03:00:15;8.55;;;2.33;;
51248;SDS011;39642;47.556;18.728;2023-07-30T03:02:41;7.22;;;2.22;;
51248;SDS011;39642;47.556;18.728;2023-07-30T03:05:07;6.50;;;2.20;;
51248;SDS011;39642;47.556;18.728;2023-07-30T03:07:33;8.63;;;2.30;;
51248;SDS011;39642;47.556;18.728;2023-07-30T03:09:59;7.80;;;2.22;;
51248;SDS011;39642;47.556;18.728;2023-07-30T03:12:25;7.43;;;2.15;;
51248;SDS011;39642;47.556;18.728;2023-07-30T03:14:51;7.55;;;2.00;;
51248;SDS011;39642;47.556;18.728;2023-07-30T03:17:17;8.15;;;2.22;;
51248;SDS011;39642;47.556;18.728;2023-07-30T03:19:43;7.03;;;2.17;;
51248;SDS011;39642;47.556;18.728;2023-07-30T03:22:09;8.50;;;2.33;;
51248;SDS011;39642;47.556;18.728;2023-07-30T03:24:34;7.68;;;2.03;;
51248;SDS011;39642;47.556;18.728;2023-07-30T03:27:00;7.53;;;2.10;;
51248;SDS011;39642;47.556;18.728;2023-07-30T03:29:26;6.62;;;2.10;;
51248;SDS011;39642;47.556;18.728;2023-07-30T03:31:52;6.82;;;1.95;;
51248;SDS011;39642;47.556;18.728;2023-07-30T03:34:18;7.80;;;2.30;;
51248;SDS011;39642;47.556;18.728;2023-07-30T03:36:44;5.70;;;1.90;;
51248;SDS011;39642;47.556;18.728;2023-07-30T03:39:10;7.47;;;2.28;;
51248;SDS011;39642;47.556;18.728;2023-07-30T03:41:36;6.75;;;2.10;;
51248;SDS011;39642;47.556;18.728;2023-07-30T03:44:02;6.45;;;2.00;;
51248;SDS011;39642;47.556;18.728;2023-07-30T03:46:27;6.95;;;2.20;;
51248;SDS011;39642;47.556;18.728;2023-07-30T03:48:53;8.38;;;2.30;;
51248;SDS011;39642;47.556;18.728;2023-07-30T03:51:19;7.75;;;2.28;;
51248;SDS011;39642;47.556;18.728;2023-07-30T03:53:45;5.70;;;1.98;;
51248;SDS011;39642;47.556;18.728;2023-07-30T03:56:11;8.45;;;2.28;;
51248;SDS011;39642;47.556;18.728;2023-07-30T03:58:37;8.45;;;2.35;;
51248;SDS011;39642;47.556;18.728;2023-07-30T04:01:03;7.80;;;2.20;;
51248;SDS011;39642;47.556;18.728;2023-07-30T04:03:29;7.15;;;2.30;;
51248;SDS011;39642;47.556;18.728;2023-07-30T04:05:54;6.85;;;2.00;;
51248;SDS011;39642;47.556;18.728;2023-07-30T04:08:20;6.80;;;2.10;;
51248;SDS011;39642;47.556;18.728;2023-07-30T04:10:46;7.12;;;1.85;;
51248;SDS011;39642;47.556;18.728;2023-07-30T04:13:13;7.55;;;2.00;;
51248;SDS011;39642;47.556;18.728;2023-07-30T04:15:39;6.20;;;2.03;;
51248;SDS011;39642;47.556;18.728;2023-07-30T04:18:04;7.25;;;2.22;;
51248;SDS011;39642;47.556;18.728;2023-07-30T04:20:30;8.40;;;2.33;;
51248;SDS011;39642;47.556;18.728;2023-07-30T04:22:56;6.68;;;2.00;;
51248;SDS011;39642;47.556;18.728;2023-07-30T04:25:22;6.40;;;2.00;;
51248;SDS011;39642;47.556;18.728;2023-07-30T04:27:48;5.90;;;1.98;;
51248;SDS011;39642;47.556;18.728;2023-07-30T04:30:14;7.70;;;2.10;;
51248;SDS011;39642;47.556;18.728;2023-07-30T04:32:40;10.57;;;2.00;;
51248;SDS011;39642;47.556;18.728;2023-07-30T04:35:06;7.70;;;2.10;;
51248;SDS011;39642;47.556;18.728;2023-07-30T04:37:32;6.87;;;1.87;;
51248;SDS011;39642;47.556;18.728;2023-07-30T04:39:58;6.65;;;2.00;;
51248;SDS011;39642;47.556;18.728;2023-07-30T04:42:24;7.47;;;2.10;;
51248;SDS011;39642;47.556;18.728;2023-07-30T04:44:49;9.75;;;2.33;;
51248;SDS011;39642;47.556;18.728;2023-07-30T04:47:15;7.15;;;2.00;;
51248;SDS011;39642;47.556;18.728;2023-07-30T04:49:41;6.82;;;1.92;;
51248;SDS011;39642;47.556;18.728;2023-07-30T04:52:07;7.62;;;2.20;;
51248;SDS011;39642;47.556;18.728;2023-07-30T04:54:34;5.90;;;1.77;;
51248;SDS011;39642;47.556;18.728;2023-07-30T04:57:02;6.75;;;2.10;;
51248;SDS011;39642;47.556;18.728;2023-07-30T04:59:28;7.07;;;2.03;;
51248;SDS011;39642;47.556;18.728;2023-07-30T05:01:54;7.37;;;2.00;;
51248;SDS011;39642;47.556;18.728;2023-07-30T05:04:20;6.22;;;1.70;;
51248;SDS011;39642;47.556;18.728;2023-07-30T05:06:46;6.90;;;1.95;;
51248;SDS011;39642;47.556;18.728;2023-07-30T05:09:11;6.47;;;1.98;;
51248;SDS011;39642;47.556;18.728;2023-07-30T05:11:38;6.97;;;2.20;;
51248;SDS011;39642;47.556;18.728;2023-07-30T05:14:04;6.55;;;1.98;;
51248;SDS011;39642;47.556;18.728;2023-07-30T05:16:30;8.23;;;2.15;;
51248;SDS011;39642;47.556;18.728;2023-07-30T05:18:56;7.45;;;2.22;;
51248;SDS011;39642;47.556;18.728;2023-07-30T05:21:22;7.62;;;2.20;;
51248;SDS011;39642;47.556;18.728;2023-07-30T05:23:48;8.75;;;2.03;;
51248;SDS011;39642;47.556;18.728;2023-07-30T05:26:13;6.82;;;2.10;;
51248;SDS011;39642;47.556;18.728;2023-07-30T05:28:39;6.57;;;2.00;;
51248;SDS011;39642;47.556;18.728;2023-07-30T05:31:05;6.20;;;2.00;;
51248;SDS011;39642;47.556;18.728;2023-07-30T05:33:31;6.85;;;2.10;;
51248;SDS011;39642;47.556;18.728;2023-07-30T05:35:57;6.82;;;1.95;;
51248;SDS011;39642;47.556;18.728;2023-07-30T05:38:23;7.50;;;2.28;;
51248;SDS011;39642;47.556;18.728;2023-07-30T05:40:48;7.28;;;1.95;;
51248;SDS011;39642;47.556;18.728;2023-07-30T05:43:14;9.27;;;2.20;;
51248;SDS011;39642;47.556;18.728;2023-07-30T05:45:40;7.00;;;2.10;;
51248;SDS011;39642;47.556;18.728;2023-07-30T05:48:06;7.95;;;1.90;;
51248;SDS011;39642;47.556;18.728;2023-07-30T05:50:32;6.45;;;2.00;;
51248;SDS011;39642;47.556;18.728;2023-07-30T05:52:58;6.47;;;2.00;;
51248;SDS011;39642;47.556;18.728;2023-07-30T05:55:24;7.32;;;2.20;;
51248;SDS011;39642;47.556;18.728;2023-07-30T05:57:50;5.80;;;1.95;;
51248;SDS011;39642;47.556;18.728;2023-07-30T06:00:15;6.18;;;2.10;;
51248;SDS011;39642;47.556;18.728;2023-07-30T06:02:42;7.32;;;2.20;;
51248;SDS011;39642;47.556;18.728;2023-07-30T06:05:08;6.75;;;2.03;;
51248;SDS011;39642;47.556;18.728;2023-07-30T06:07:33;6.62;;;2.00;;
51248;SDS011;39642;47.556;18.728;2023-07-30T06:09:59;7.10;;;1.90;;
51248;SDS011;39642;47.556;18.728;2023-07-30T06:12:25;6.95;;;2.03;;
51248;SDS011;39642;47.556;18.728;2023-07-30T06:14:51;6.70;;;2.10;;
51248;SDS011;39642;47.556;18.728;2023-07-30T06:17:17;7.25;;;2.17;;
51248;SDS011;39642;47.556;18.728;2023-07-30T06:19:43;7.07;;;2.20;;
51248;SDS011;39642;47.556;18.728;2023-07-30T06:22:08;7.57;;;2.00;;
51248;SDS011;39642;47.556;18.728;2023-07-30T06:24:34;7.15;;;2.10;;
51248;SDS011;39642;47.556;18.728;2023-07-30T06:27:00;7.22;;;2.15;;
51248;SDS011;39642;47.556;18.728;2023-07-30T06:29:26;6.95;;;2.08;;
51248;SDS011;39642;47.556;18.728;2023-07-30T06:31:52;6.45;;;2.00;;
51248;SDS011;39642;47.556;18.728;2023-07-30T06:34:18;6.85;;;2.17;;
51248;SDS011;39642;47.556;18.728;2023-07-30T06:36:44;6.72;;;2.03;;
51248;SDS011;39642;47.556;18.728;2023-07-30T06:39:09;7.22;;;2.00;;
51248;SDS011;39642;47.556;18.728;2023-07-30T06:41:35;6.03;;;2.03;;
51248;SDS011;39642;47.556;18.728;2023-07-30T06:44:01;8.18;;;2.10;;
51248;SDS011;39642;47.556;18.728;2023-07-30T06:46:27;7.37;;;1.98;;
51248;SDS011;39642;47.556;18.728;2023-07-30T06:48:53;7.15;;;1.95;;
51248;SDS011;39642;47.556;18.728;2023-07-30T06:51:19;7.15;;;2.08;;
51248;SDS011;39642;47.556;18.728;2023-07-30T06:53:45;7.55;;;2.10;;
51248;SDS011;39642;47.556;18.728;2023-07-30T06:56:11;7.85;;;2.20;;
51248;SDS011;39642;47.556;18.728;2023-07-30T06:58:37;7.15;;;2.05;;
51248;SDS011;39642;47.556;18.728;2023-07-30T07:01:03;8.07;;;2.20;;
51248;SDS011;39642;47.556;18.728;2023-07-30T07:03:29;6.35;;;2.00;;
51248;SDS011;39642;47.556;18.728;2023-07-30T07:05:55;7.70;;;2.30;;
51248;SDS011;39642;47.556;18.728;2023-07-30T07:08:22;8.45;;;2.20;;
51248;SDS011;39642;47.556;18.728;2023-07-30T07:10:48;6.68;;;2.10;;
51248;SDS011;39642;47.556;18.728;2023-07-30T07:13:14;6.93;;;2.10;;
51248;SDS011;39642;47.556;18.728;2023-07-30T07:15:44;8.30;;;2.10;;
51248;SDS011;39642;47.556;18.728;2023-07-30T07:18:10;7.57;;;2.10;;
51248;SDS011;39642;47.556;18.728;2023-07-30T07:20:36;7.68;;;2.17;;
51248;SDS011;39642;47.556;18.728;2023-07-30T07:23:03;7.47;;;2.20;;
51248;SDS011;39642;47.556;18.728;2023-07-30T07:25:29;7.40;;;2.03;;
51248;SDS011;39642;47.556;18.728;2023-07-30T07:27:55;6.75;;;2.15;;
51248;SDS011;39642;47.556;18.728;2023-07-30T07:30:21;8.85;;;2.37;;
51248;SDS011;39642;47.556;18.728;2023-07-30T07:32:47;7.90;;;2.20;;
51248;SDS011;39642;47.556;18.728;2023-07-30T07:35:16;8.00;;;2.40;;
51248;SDS011;39642;47.556;18.728;2023-07-30T07:37:44;7.78;;;2.30;;
51248;SDS011;39642;47.556;18.728;2023-07-30T07:40:10;8.32;;;2.12;;
51248;SDS011;39642;47.556;18.728;2023-07-30T07:42:37;6.50;;;2.00;;
51248;SDS011;39642;47.556;18.728;2023-07-30T07:45:05;7.95;;;2.40;;
51248;SDS011;39642;47.556;18.728;2023-07-30T07:47:32;6.78;;;2.00;;
51248;SDS011;39642;47.556;18.728;2023-07-30T07:49:57;7.03;;;2.12;;
51248;SDS011;39642;47.556;18.728;2023-07-30T07:52:23;6.82;;;2.10;;
51248;SDS011;39642;47.556;18.728;2023-07-30T07:54:49;6.93;;;2.10;;
51248;SDS011;39642;47.556;18.728;2023-07-30T07:57:15;7.87;;;2.30;;
51248;SDS011;39642;47.556;18.728;2023-07-30T07:59:41;7.40;;;2.03;;
51248;SDS011;39642;47.556;18.728;2023-07-30T08:02:13;7.70;;;2.10;;
51248;SDS011;39642;47.556;18.728;2023-07-30T08:04:39;6.87;;;1.90;;
51248;SDS011;39642;47.556;18.728;2023-07-30T08:07:05;7.80;;;2.37;;
51248;SDS011;39642;47.556;18.728;2023-07-30T08:09:31;6.70;;;2.00;;
51248;SDS011;39642;47.556;18.728;2023-07-30T08:11:57;7.03;;;2.10;;
51248;SDS011;39642;47.556;18.728;2023-07-30T08:14:25;8.27;;;2.15;;
51248;SDS011;39642;47.556;18.728;2023-07-30T08:16:51;7.40;;;2.35;;
51248;SDS011;39642;47.556;18.728;2023-07-30T08:19:17;7.25;;;2.15;;
51248;SDS011;39642;47.556;18.728;2023-07-30T08:21:43;7.70;;;2.22;;
51248;SDS011;39642;47.556;18.728;2023-07-30T08:24:09;7.18;;;2.05;;
51248;SDS011;39642;47.556;18.728;2023-07-30T08:26:34;6.70;;;2.10;;
51248;SDS011;39642;47.556;18.728;2023-07-30T08:29:00;8.32;;;2.30;;
51248;SDS011;39642;47.556;18.728;2023-07-30T08:31:26;7.62;;;2.20;;
51248;SDS011;39642;47.556;18.728;2023-07-30T08:33:52;7.60;;;2.17;;
51248;SDS011;39642;47.556;18.728;2023-07-30T08:36:18;8.10;;;2.30;;
51248;SDS011;39642;47.556;18.728;2023-07-30T08:38:44;6.80;;;2.10;;
51248;SDS011;39642;47.556;18.728;2023-07-30T08:41:09;7.95;;;2.33;;
51248;SDS011;39642;47.556;18.728;2023-07-30T08:43:35;7.00;;;2.33;;
51248;SDS011;39642;47.556;18.728;2023-07-30T08:46:01;7.55;;;2.40;;
51248;SDS011;39642;47.556;18.728;2023-07-30T08:48:27;7.05;;;2.20;;
51248;SDS011;39642;47.556;18.728;2023-07-30T08:50:56;8.05;;;2.33;;
51248;SDS011;39642;47.556;18.728;2023-07-30T08:53:26;7.45;;;2.37;;
51248;SDS011;39642;47.556;18.728;2023-07-30T08:55:53;8.35;;;2.50;;
51248;SDS011;39642;47.556;18.728;2023-07-30T08:58:21;6.68;;;2.03;;
51248;SDS011;39642;47.556;18.728;2023-07-30T09:00:49;7.60;;;2.30;;
51248;SDS011;39642;47.556;18.728;2023-07-30T09:03:16;8.82;;;2.42;;
51248;SDS011;39642;47.556;18.728;2023-07-30T09:05:44;8.40;;;2.37;;
51248;SDS011;39642;47.556;18.728;2023-07-30T09:08:09;7.70;;;2.22;;
51248;SDS011;39642;47.556;18.728;2023-07-30T09:10:36;7.22;;;2.17;;
51248;SDS011;39642;47.556;18.728;2023-07-30T09:13:02;7.53;;;2.20;;
51248;SDS011;39642;47.556;18.728;2023-07-30T09:15:31;8.00;;;2.37;;
51248;SDS011;39642;47.556;18.728;2023-07-30T09:18:01;7.28;;;2.00;;
51248;SDS011;39642;47.556;18.728;2023-07-30T09:20:27;7.78;;;2.55;;
51248;SDS011;39642;47.556;18.728;2023-07-30T09:22:56;9.00;;;2.50;;
51248;SDS011;39642;47.556;18.728;2023-07-30T09:25:22;8.27;;;2.42;;
51248;SDS011;39642;47.556;18.728;2023-07-30T09:27:49;8.30;;;2.40;;
51248;SDS011;39642;47.556;18.728;2023-07-30T09:30:21;7.75;;;2.55;;
51248;SDS011;39642;47.556;18.728;2023-07-30T09:35:19;8.15;;;2.80;;
51248;SDS011;39642;47.556;18.728;2023-07-30T09:37:45;8.90;;;2.80;;
51248;SDS011;39642;47.556;18.728;2023-07-30T09:40:11;9.65;;;3.50;;
51248;SDS011;39642;47.556;18.728;2023-07-30T09:42:43;9.93;;;3.20;;
51248;SDS011;39642;47.556;18.728;2023-07-30T09:45:16;9.20;;;3.15;;
51248;SDS011;39642;47.556;18.728;2023-07-30T09:47:47;9.80;;;3.42;;
51248;SDS011;39642;47.556;18.728;2023-07-30T09:50:14;8.80;;;3.25;;
51248;SDS011;39642;47.556;18.728;2023-07-30T09:52:41;9.50;;;3.50;;
51248;SDS011;39642;47.556;18.728;2023-07-30T09:55:08;9.35;;;3.25;;
51248;SDS011;39642;47.556;18.728;2023-07-30T09:57:34;10.27;;;3.60;;
51248;SDS011;39642;47.556;18.728;2023-07-30T10:00:01;9.68;;;3.67;;
51248;SDS011;39642;47.556;18.728;2023-07-30T10:02:29;10.45;;;4.00;;
51248;SDS011;39642;47.556;18.728;2023-07-30T10:05:01;10.48;;;4.18;;
51248;SDS011;39642;47.556;18.728;2023-07-30T10:07:33;10.25;;;3.80;;
51248;SDS011;39642;47.556;18.728;2023-07-30T10:10:00;9.60;;;3.72;;
51248;SDS011;39642;47.556;18.728;2023-07-30T10:12:32;11.93;;;4.12;;
51248;SDS011;39642;47.556;18.728;2023-07-30T10:15:00;11.20;;;4.30;;
51248;SDS011;39642;47.556;18.728;2023-07-30T10:17:26;10.70;;;4.05;;
51248;SDS011;39642;47.556;18.728;2023-07-30T10:19:54;11.55;;;4.75;;
51248;SDS011;39642;47.556;18.728;2023-07-30T10:22:21;10.88;;;4.30;;
51248;SDS011;39642;47.556;18.728;2023-07-30T10:24:56;11.40;;;4.10;;
51248;SDS011;39642;47.556;18.728;2023-07-30T10:27:24;10.27;;;4.10;;
51248;SDS011;39642;47.556;18.728;2023-07-30T10:30:08;11.50;;;4.40;;
51248;SDS011;39642;47.556;18.728;2023-07-30T10:32:41;11.40;;;4.47;;
51248;SDS011;39642;47.556;18.728;2023-07-30T10:38:13;10.75;;;4.43;;
51248;SDS011;39642;47.556;18.728;2023-07-30T10:40:42;11.55;;;4.68;;
51248;SDS011;39642;47.556;18.728;2023-07-30T10:43:29;10.93;;;4.43;;
51248;SDS011;39642;47.556;18.728;2023-07-30T10:45:56;11.32;;;4.70;;
51248;SDS011;39642;47.556;18.728;2023-07-30T10:51:05;11.20;;;4.60;;
51248;SDS011;39642;47.556;18.728;2023-07-30T10:53:32;11.32;;;4.68;;
51248;SDS011;39642;47.556;18.728;2023-07-30T10:55:59;10.45;;;4.47;;
51248;SDS011;39642;47.556;18.728;2023-07-30T10:58:30;11.12;;;4.50;;
51248;SDS011;39642;47.556;18.728;2023-07-30T11:00:57;11.52;;;4.35;;
51248;SDS011;39642;47.556;18.728;2023-07-30T11:03:24;10.90;;;4.28;;
51248;SDS011;39642;47.556;18.728;2023-07-30T11:05:53;12.02;;;4.50;;
51248;SDS011;39642;47.556;18.728;2023-07-30T11:11:05;11.02;;;4.30;;
51248;SDS011;39642;47.556;18.728;2023-07-30T11:13:36;12.10;;;4.22;;
51248;SDS011;39642;47.556;18.728;2023-07-30T11:16:06;12.35;;;4.05;;
51248;SDS011;39642;47.556;18.728;2023-07-30T11:18:33;10.45;;;4.20;;
51248;SDS011;39642;47.556;18.728;2023-07-30T11:21:07;12.15;;;4.10;;
51248;SDS011;39642;47.556;18.728;2023-07-30T11:23:34;11.07;;;4.30;;
51248;SDS011;39642;47.556;18.728;2023-07-30T11:26:01;10.65;;;4.18;;
51248;SDS011;39642;47.556;18.728;2023-07-30T11:28:35;10.27;;;4.00;;
51248;SDS011;39642;47.556;18.728;2023-07-30T11:31:03;10.77;;;4.18;;
51248;SDS011;39642;47.556;18.728;2023-07-30T11:33:31;12.07;;;4.22;;
51248;SDS011;39642;47.556;18.728;2023-07-30T11:35:57;11.18;;;4.10;;
51248;SDS011;39642;47.556;18.728;2023-07-30T11:38:26;9.82;;;4.10;;
51248;SDS011;39642;47.556;18.728;2023-07-30T11:40:53;10.50;;;3.90;;
51248;SDS011;39642;47.556;18.728;2023-07-30T11:43:20;9.48;;;3.60;;
51248;SDS011;39642;47.556;18.728;2023-07-30T11:45:47;10.48;;;3.90;;
51248;SDS011;39642;47.556;18.728;2023-07-30T11:48:13;10.38;;;3.33;;
51248;SDS011;39642;47.556;18.728;2023-07-30T11:50:50;9.77;;;3.58;;
51248;SDS011;39642;47.556;18.728;2023-07-30T11:53:17;9.82;;;3.45;;
51248;SDS011;39642;47.556;18.728;2023-07-30T11:55:44;9.75;;;3.70;;
51248;SDS011;39642;47.556;18.728;2023-07-30T11:58:11;9.88;;;3.55;;
51248;SDS011;39642;47.556;18.728;2023-07-30T12:00:40;8.73;;;3.33;;
51248;SDS011;39642;47.556;18.728;2023-07-30T12:03:11;10.02;;;3.62;;
51248;SDS011;39642;47.556;18.728;2023-07-30T12:05:40;8.85;;;3.35;;
51248;SDS011;39642;47.556;18.728;2023-07-30T12:08:06;9.18;;;2.97;;
51248;SDS011;39642;47.556;18.728;2023-07-30T12:10:42;10.50;;;3.78;;
51248;SDS011;39642;47.556;18.728;2023-07-30T12:13:14;8.90;;;2.90;;
51248;SDS011;39642;47.556;18.728;2023-07-30T12:15:50;8.85;;;3.33;;
51248;SDS011;39642;47.556;18.728;2023-07-30T12:18:18;9.25;;;3.42;;
51248;SDS011;39642;47.556;18.728;2023-07-30T12:20:44;9.48;;;3.12;;
51248;SDS011;39642;47.556;18.728;2023-07-30T12:23:10;9.77;;;3.25;;
51248;SDS011;39642;47.556;18.728;2023-07-30T12:25:37;9.48;;;3.22;;
51248;SDS011;39642;47.556;18.728;2023-07-30T12:28:03;8.90;;;3.40;;
51248;SDS011;39642;47.556;18.728;2023-07-30T12:30:29;8.60;;;3.08;;
51248;SDS011;39642;47.556;18.728;2023-07-30T12:32:56;8.95;;;3.20;;
51248;SDS011;39642;47.556;18.728;2023-07-30T12:35:22;9.35;;;3.28;;
51248;SDS011;39642;47.556;18.728;2023-07-30T12:37:49;8.95;;;2.83;;
51248;SDS011;39642;47.556;18.728;2023-07-30T12:40:15;9.40;;;3.40;;
51248;SDS011;39642;47.556;18.728;2023-07-30T12:42:42;9.18;;;3.10;;
51248;SDS011;39642;47.556;18.728;2023-07-30T12:45:08;8.70;;;2.92;;
51248;SDS011;39642;47.556;18.728;2023-07-30T12:47:34;8.13;;;2.80;;
51248;SDS011;39642;47.556;18.728;2023-07-30T12:50:02;8.65;;;3.08;;
51248;SDS011;39642;47.556;18.728;2023-07-30T12:52:29;10.07;;;3.17;;
51248;SDS011;39642;47.556;18.728;2023-07-30T12:54:55;8.70;;;2.95;;
51248;SDS011;39642;47.556;18.728;2023-07-30T12:57:21;8.90;;;2.80;;
51248;SDS011;39642;47.556;18.728;2023-07-30T12:59:47;9.73;;;3.08;;
51248;SDS011;39642;47.556;18.728;2023-07-30T13:02:12;9.25;;;3.10;;
51248;SDS011;39642;47.556;18.728;2023-07-30T13:04:38;9.30;;;3.10;;
51248;SDS011;39642;47.556;18.728;2023-07-30T13:07:04;8.90;;;2.97;;
51248;SDS011;39642;47.556;18.728;2023-07-30T13:09:30;9.20;;;2.95;;
51248;SDS011;39642;47.556;18.728;2023-07-30T13:11:56;8.45;;;2.67;;
51248;SDS011;39642;47.556;18.728;2023-07-30T13:14:22;9.68;;;3.00;;
51248;SDS011;39642;47.556;18.728;2023-07-30T13:16:48;9.88;;;3.12;;
51248;SDS011;39642;47.556;18.728;2023-07-30T13:19:14;8.02;;;2.75;;
51248;SDS011;39642;47.556;18.728;2023-07-30T13:21:40;8.27;;;2.62;;
51248;SDS011;39642;47.556;18.728;2023-07-30T13:24:06;8.45;;;2.75;;
51248;SDS011;39642;47.556;18.728;2023-07-30T13:26:32;7.53;;;2.70;;
51248;SDS011;39642;47.556;18.728;2023-07-30T13:28:57;8.80;;;2.80;;
51248;SDS011;39642;47.556;18.728;2023-07-30T13:31:23;8.40;;;2.80;;
51248;SDS011;39642;47.556;18.728;2023-07-30T13:33:49;7.93;;;2.53;;
51248;SDS011;39642;47.556;18.728;2023-07-30T13:36:16;8.65;;;2.83;;
51248;SDS011;39642;47.556;18.728;2023-07-30T13:38:42;8.48;;;2.80;;
51248;SDS011;39642;47.556;18.728;2023-07-30T13:41:09;8.13;;;2.67;;
51248;SDS011;39642;47.556;18.728;2023-07-30T13:43:35;8.77;;;2.85;;
51248;SDS011;39642;47.556;18.728;2023-07-30T13:46:01;8.48;;;2.72;;
51248;SDS011;39642;47.556;18.728;2023-07-30T13:48:27;8.30;;;3.00;;
51248;SDS011;39642;47.556;18.728;2023-07-30T13:50:53;8.20;;;2.80;;
51248;SDS011;39642;47.556;18.728;2023-07-30T13:53:19;7.97;;;2.60;;
51248;SDS011;39642;47.556;18.728;2023-07-30T13:55:45;7.87;;;2.80;;
51248;SDS011;39642;47.556;18.728;2023-07-30T13:58:11;8.60;;;2.78;;
51248;SDS011;39642;47.556;18.728;2023-07-30T14:00:39;8.20;;;2.45;;
51248;SDS011;39642;47.556;18.728;2023-07-30T14:03:06;8.00;;;2.50;;
51248;SDS011;39642;47.556;18.728;2023-07-30T14:05:32;8.57;;;2.70;;
51248;SDS011;39642;47.556;18.728;2023-07-30T14:07:58;7.95;;;2.50;;
51248;SDS011;39642;47.556;18.728;2023-07-30T14:10:23;6.87;;;2.33;;
51248;SDS011;39642;47.556;18.728;2023-07-30T14:12:49;9.73;;;2.50;;
51248;SDS011;39642;47.556;18.728;2023-07-30T14:15:15;7.25;;;2.40;;
51248;SDS011;39642;47.556;18.728;2023-07-30T14:17:41;7.68;;;2.30;;
51248;SDS011;39642;47.556;18.728;2023-07-30T14:20:08;7.18;;;2.35;;
51248;SDS011;39642;47.556;18.728;2023-07-30T14:22:34;7.90;;;2.65;;
51248;SDS011;39642;47.556;18.728;2023-07-30T14:25:01;6.70;;;2.12;;
51248;SDS011;39642;47.556;18.728;2023-07-30T14:27:27;7.97;;;2.45;;
51248;SDS011;39642;47.556;18.728;2023-07-30T14:29:53;7.03;;;2.42;;
51248;SDS011;39642;47.556;18.728;2023-07-30T14:32:19;7.62;;;2.47;;
51248;SDS011;39642;47.556;18.728;2023-07-30T14:34:45;7.20;;;2.20;;
51248;SDS011;39642;47.556;18.728;2023-07-30T14:37:11;7.65;;;2.40;;
51248;SDS011;39642;47.556;18.728;2023-07-30T14:39:37;7.78;;;2.45;;
51248;SDS011;39642;47.556;18.728;2023-07-30T14:42:03;8.05;;;2.50;;